Time;durP1;ratioP1;P1;durP2;ratioP2;P2;SDS_P1;SDS_P2;PMS_P1;PMS_P2;Temp;Humidity;BMP_temperature;BMP_pressure;BME280_temperature;BME280_humidity;BME280_pressure;Samples;Min_cycle;Max_cycle;Signal;HPM_P1;HPM_P2
2023/10/05 00:03:05;;;;;;;10.20;2.47;;;;;;;14.68;100.00;102232.19;5173491;28;20038;-70
2023/10/05 00:05:38;;;;;;;6.10;2.40;;;;;;;14.74;100.00;102238.91;5173789;28;20023;-70
2023/10/05 00:08:10;;;;;;;8.43;2.47;;;;;;;14.68;100.00;102234.00;5172584;28;20081;-70
2023/10/05 00:10:41;;;;;;;8.83;2.77;;;;;;;14.63;100.00;102232.47;5174404;28;20018;-70
2023/10/05 00:13:12;;;;;;;11.87;2.90;;;;;;;14.67;100.00;102233.13;5175544;28;20058;-69
2023/10/05 00:15:45;;;;;;;12.27;3.37;;;;;;;14.60;100.00;102218.59;5194408;28;20026;-70
2023/10/05 00:18:19;;;;;;;6.33;2.30;;;;;;;14.65;100.00;102242.91;5194854;28;20054;-70
2023/10/05 00:20:53;;;;;;;13.10;3.17;;;;;;;14.69;100.00;102244.47;5197242;28;20116;-70
2023/10/05 00:23:27;;;;;;;8.50;2.28;;;;;;;14.72;100.00;102252.19;5193126;28;20481;-70
2023/10/05 00:25:58;;;;;;;11.20;2.30;;;;;;;14.67;100.00;102241.06;5198145;28;20031;-70
2023/10/05 00:28:30;;;;;;;9.27;2.63;;;;;;;14.68;100.00;102248.00;5207204;28;20032;-70
2023/10/05 00:31:03;;;;;;;7.90;2.73;;;;;;;14.72;100.00;102249.56;5206779;28;20022;-70
2023/10/05 00:33:34;;;;;;;11.13;2.00;;;;;;;14.66;100.00;102247.25;5199746;28;20037;-70
2023/10/05 00:36:06;;;;;;;10.93;3.27;;;;;;;14.64;100.00;102251.78;5202262;28;20022;-70
2023/10/05 00:38:37;;;;;;;7.73;2.63;;;;;;;14.64;100.00;102262.31;5192138;28;20030;-70
2023/10/05 00:41:09;;;;;;;10.17;3.00;;;;;;;14.63;100.00;102265.88;5205168;28;20095;-70
2023/10/05 00:43:41;;;;;;;11.30;3.27;;;;;;;14.62;100.00;102269.44;5195365;28;20080;-70
2023/10/05 00:46:13;;;;;;;9.33;2.53;;;;;;;14.63;100.00;102266.72;5199806;28;20105;-70
2023/10/05 00:51:35;;;;;;;12.17;2.17;;;;;;;14.57;100.00;102258.31;5192943;28;20050;-70
2023/10/05 00:54:10;;;;;;;9.40;2.30;;;;;;;14.58;100.00;102262.63;5199496;28;20061;-70
2023/10/05 00:56:42;;;;;;;8.77;2.93;;;;;;;14.51;100.00;102262.97;5213658;28;20061;-70
2023/10/05 00:59:20;;;;;;;9.77;2.97;;;;;;;14.54;100.00;102263.75;5202456;28;20108;-70
2023/10/05 01:04:53;;;;;;;10.63;2.33;;;;;;;14.51;100.00;102264.75;5193572;23;20046;-80
2023/10/05 01:12:45;;;;;;;11.70;2.70;;;;;;;14.32;100.00;102236.75;5233056;28;20536;-81
2023/10/05 01:15:22;;;;;;;11.75;3.53;;;;;;;14.47;100.00;102248.25;5231005;28;20047;-81
2023/10/05 01:17:56;;;;;;;10.53;2.50;;;;;;;14.43;100.00;102246.72;5233271;28;20128;-80
2023/10/05 01:20:29;;;;;;;8.15;2.08;;;;;;;14.35;100.00;102243.63;5236649;28;20033;-81
2023/10/05 01:23:01;;;;;;;8.33;2.80;;;;;;;14.25;100.00;102225.69;5250091;28;20017;-81
2023/10/05 01:25:32;;;;;;;9.90;3.07;;;;;;;14.32;100.00;102230.63;5239934;28;20028;-81
2023/10/05 01:28:04;;;;;;;9.50;3.10;;;;;;;14.41;100.00;102256.50;5255810;28;20476;-81
2023/10/05 01:30:38;;;;;;;8.03;2.10;;;;;;;14.41;100.00;102248.59;5236346;28;20596;-81
2023/10/05 01:33:11;;;;;;;6.63;3.00;;;;;;;14.32;100.00;102238.53;5223761;28;20021;-82
2023/10/05 01:35:42;;;;;;;12.60;2.67;;;;;;;14.31;100.00;102234.22;5248135;28;20025;-81
2023/10/05 01:38:14;;;;;;;10.23;2.60;;;;;;;14.27;100.00;102241.44;5246312;28;20031;-81
2023/10/05 01:40:49;;;;;;;10.10;3.00;;;;;;;14.32;100.00;102241.16;5248681;28;21641;-81
2023/10/05 01:43:20;;;;;;;8.83;3.50;;;;;;;14.29;100.00;102247.47;5254716;28;20108;-81
2023/10/05 01:45:51;;;;;;;9.73;2.80;;;;;;;14.33;100.00;102245.53;5252558;28;20448;-81
2023/10/05 01:48:28;;;;;;;7.67;2.40;;;;;;;14.33;100.00;102242.91;5254569;28;20067;-80
2023/10/05 01:51:19;;;;;;;9.03;3.47;;;;;;;14.29;100.00;102236.94;5234528;28;20438;-81
2023/10/05 01:53:52;;;;;;;7.63;2.83;;;;;;;14.11;100.00;102220.31;5212315;28;20084;-81
2023/10/05 01:56:24;;;;;;;10.27;3.37;;;;;;;14.25;100.00;102225.69;5232302;28;20469;-81
2023/10/05 01:58:55;;;;;;;11.13;2.73;;;;;;;14.25;100.00;102219.56;5234676;28;20036;-81
2023/10/05 02:01:28;;;;;;;6.77;2.50;;;;;;;14.37;100.00;102240.00;5234464;28;21045;-81
2023/10/05 02:04:00;;;;;;;8.10;2.83;;;;;;;14.20;100.00;102222.47;5222816;28;20034;-83
2023/10/05 02:06:43;;;;;;;7.30;2.20;;;;;;;14.18;100.00;102210.28;5212841;28;20049;-81
2023/10/05 02:09:19;;;;;;;8.17;2.47;;;;;;;14.23;100.00;102224.06;5234112;28;20038;-81
2023/10/05 02:11:52;;;;;;;11.03;3.03;;;;;;;14.12;100.00;102219.38;5233580;28;20108;-81
2023/10/05 02:14:23;;;;;;;11.13;2.13;;;;;;;14.13;100.00;102215.81;5232219;28;20088;-81
2023/10/05 02:16:55;;;;;;;12.40;3.47;;;;;;;14.21;100.00;102218.88;5228703;28;20052;-83
2023/10/05 02:19:26;;;;;;;10.13;2.50;;;;;;;14.22;100.00;102228.50;5225045;28;20152;-83
2023/10/05 02:22:04;;;;;;;12.17;3.47;;;;;;;14.13;100.00;102200.00;5225759;28;20071;-81
2023/10/05 02:24:36;;;;;;;7.37;2.53;;;;;;;14.12;100.00;102214.13;5220131;28;20025;-81
2023/10/05 02:27:11;;;;;;;8.73;2.10;;;;;;;14.05;100.00;102202.19;5226704;28;20021;-81
2023/10/05 02:29:43;;;;;;;8.97;2.57;;;;;;;14.15;100.00;102221.84;5220980;28;20081;-81
2023/10/05 02:32:21;;;;;;;8.17;2.70;;;;;;;14.07;100.00;102214.34;5219332;28;20477;-81
2023/10/05 02:37:32;;;;;;;7.80;2.00;;;;;;;14.07;100.00;102211.72;5236937;28;20025;-80
2023/10/05 02:40:08;;;;;;;6.97;2.67;;;;;;;14.22;100.00;102225.88;5219558;28;20073;-81
2023/10/05 02:42:43;;;;;;;9.53;2.87;;;;;;;13.86;100.00;102182.13;5227849;28;20045;-81
2023/10/05 02:45:14;;;;;;;13.63;2.83;;;;;;;13.89;100.00;102182.78;5212683;28;20059;-81
2023/10/05 02:47:48;;;;;;;8.43;2.80;;;;;;;13.97;100.00;102195.56;5222678;28;20490;-81
2023/10/05 02:50:20;;;;;;;11.00;2.72;;;;;;;13.84;100.00;102171.63;5225356;28;20544;-81
2023/10/05 02:52:52;;;;;;;9.10;2.63;;;;;;;13.95;100.00;102186.00;5224477;28;20084;-82
2023/10/05 02:55:23;;;;;;;8.47;2.70;;;;;;;13.85;100.00;102180.41;5214090;28;20417;-80
2023/10/05 02:57:55;;;;;;;10.23;2.80;;;;;;;13.99;100.00;102206.88;5233440;28;20029;-80
2023/10/05 03:00:27;;;;;;;11.10;2.97;;;;;;;14.02;100.00;102229.53;5230594;28;20028;-80
2023/10/05 03:03:02;;;;;;;11.93;2.87;;;;;;;13.74;100.00;102194.97;5243794;28;20072;-80
2023/10/05 03:05:35;;;;;;;11.20;3.30;;;;;;;13.94;100.00;102219.44;5229657;28;20481;-80
2023/10/05 03:08:08;;;;;;;8.00;2.50;;;;;;;13.83;100.00;102192.78;5229725;28;20025;-81
2023/10/05 03:10:43;;;;;;;8.93;2.65;;;;;;;13.90;100.00;102202.06;5224985;28;20031;-82
2023/10/05 03:13:18;;;;;;;7.90;2.30;;;;;;;13.92;100.00;102202.84;5230530;28;20066;-81
2023/10/05 03:15:50;;;;;;;11.10;3.43;;;;;;;13.79;100.00;102181.56;5232038;28;20105;-81
2023/10/05 03:18:25;;;;;;;9.83;3.47;;;;;;;13.96;100.00;102214.94;5231922;28;20037;-82
2023/10/05 03:20:58;;;;;;;;;;;;;;;14.35;100.00;102212.88;5232108;28;20029;-82
2023/10/05 03:23:30;;;;;;;10.57;2.90;;;;;;;13.86;100.00;102197.91;5223301;28;19917;-82
2023/10/05 03:26:04;;;;;;;6.90;2.37;;;;;;;13.74;100.00;102188.84;5214781;28;20045;-82
2023/10/05 03:28:37;;;;;;;10.47;2.67;;;;;;;13.79;100.00;102190.31;5224836;28;20699;-82
2023/10/05 03:31:31;;;;;;;9.60;3.13;;;;;;;13.90;100.00;102202.06;5220655;28;20036;-82
2023/10/05 03:34:08;;;;;;;9.13;2.70;;;;;;;13.67;100.00;102173.38;5247505;28;20036;-81
2023/10/05 03:36:47;;;;;;;10.20;2.67;;;;;;;13.88;100.00;102201.28;5237462;28;20047;-81
2023/10/05 03:39:28;;;;;;;15.80;3.10;;;;;;;13.78;100.00;102186.00;5240476;28;20056;-82
2023/10/05 03:42:00;;;;;;;6.10;2.20;;;;;;;13.70;100.00;102185.50;5242766;28;20022;-82
2023/10/05 03:44:31;;;;;;;10.63;2.97;;;;;;;13.70;100.00;102187.31;5235722;28;20033;-82
2023/10/05 03:47:04;;;;;;;7.07;2.57;;;;;;;13.62;100.00;102179.81;5236340;28;20060;-83
2023/10/05 03:49:36;;;;;;;9.77;2.70;;;;;;;13.81;100.00;102215.72;5250473;28;20429;-82
2023/10/05 03:52:07;;;;;;;8.47;3.00;;;;;;;13.59;100.00;102190.50;5232818;28;20112;-82
2023/10/05 03:54:39;;;;;;;10.37;3.30;;;;;;;13.45;100.00;102176.22;5233765;28;20033;-83
2023/10/05 03:57:12;;;;;;;7.33;2.87;;;;;;;13.42;100.00;102160.59;5245880;28;20029;-81
2023/10/05 03:59:44;;;;;;;7.10;2.33;;;;;;;13.59;100.00;102190.50;5240512;28;20060;-81
2023/10/05 04:02:18;;;;;;;11.63;2.30;;;;;;;13.70;100.00;102198.69;5237644;28;20026;-81
2023/10/05 04:04:49;;;;;;;8.70;2.05;;;;;;;13.61;100.00;102180.75;5239211;28;20036;-81
2023/10/05 04:07:21;;;;;;;8.53;2.87;;;;;;;13.64;100.00;102189.34;5244648;28;20132;-80
2023/10/05 04:09:52;;;;;;;8.63;2.90;;;;;;;13.66;100.00;102205.06;5241900;28;20112;-81
2023/10/05 04:12:24;;;;;;;10.73;3.20;;;;;;;13.66;100.00;102203.28;5228995;28;20053;-82
2023/10/05 04:14:57;;;;;;;9.00;2.90;;;;;;;13.45;100.00;102170.09;5244353;28;20047;-81
2023/10/05 04:17:28;;;;;;;8.67;2.43;;;;;;;13.63;100.00;102203.41;5229689;28;20030;-81
2023/10/05 04:19:59;;;;;;;10.20;3.50;;;;;;;13.67;100.00;102214.63;5251499;28;20017;-80
2023/10/05 04:22:32;;;;;;;7.77;3.30;;;;;;;13.53;100.00;102197.78;5241991;28;20408;-80
2023/10/05 04:25:04;;;;;;;8.87;3.30;;;;;;;13.55;100.00;102195.06;5234064;28;20652;-82
2023/10/05 04:27:36;;;;;;;10.57;2.80;;;;;;;13.59;100.00;102206.28;5233481;28;20033;-80
2023/10/05 04:30:07;;;;;;;10.53;3.53;;;;;;;13.50;100.00;102194.41;5232769;28;20068;-80
2023/10/05 04:32:39;;;;;;;5.70;3.33;;;;;;;13.59;100.00;102209.78;5233808;28;20041;-81
2023/10/05 04:35:22;;;;;;;13.00;3.77;;;;;;;13.60;100.00;102213.25;5233174;28;20041;-80
2023/10/05 04:38:13;;;;;;;11.63;3.03;;;;;;;13.69;100.00;102211.94;5228018;28;20477;-81
2023/10/05 04:40:45;;;;;;;15.50;3.90;;;;;;;13.38;100.00;102188.00;5232801;28;20064;-80
2023/10/05 04:43:19;;;;;;;14.37;3.17;;;;;;;13.34;100.00;102186.44;5233657;28;20025;-81
2023/10/05 04:45:51;;;;;;;8.15;2.90;;;;;;;13.55;100.00;102208.22;5223169;28;20017;-81
2023/10/05 04:48:23;;;;;;;12.10;3.33;;;;;;;13.44;100.00;102198.19;5223340;28;20024;-80
2023/10/05 04:50:59;;;;;;;9.87;3.73;;;;;;;13.53;100.00;102210.94;5225691;28;20025;-80
2023/10/05 04:53:30;;;;;;;12.20;3.00;;;;;;;13.49;100.00;102214.59;5225155;28;20017;-80
2023/10/05 04:56:27;;;;;;;13.13;3.97;;;;;;;13.46;100.00;102209.50;5229951;28;20033;-81
2023/10/05 04:59:22;;;;;;;11.47;3.53;;;;;;;13.44;100.00;102203.47;5227567;28;20033;-80
2023/10/05 05:07:14;;;;;;;8.43;3.37;;;;;;;13.34;100.00;102179.41;5224078;28;20408;-79
2023/10/05 05:09:46;;;;;;;10.87;3.83;;;;;;;13.46;100.00;102200.78;5218253;28;20025;-79
2023/10/05 05:12:18;;;;;;;7.53;2.90;;;;;;;13.38;100.00;102188.00;5247250;28;20075;-80
2023/10/05 05:14:55;;;;;;;9.37;2.73;;;;;;;13.28;100.00;102177.09;5232410;28;20028;-80
2023/10/05 05:17:26;;;;;;;9.23;3.03;;;;;;;13.28;100.00;102179.72;5232595;28;20063;-80
2023/10/05 05:19:58;;;;;;;20.27;6.13;;;;;;;13.28;100.00;102175.28;5232655;28;20530;-80
2023/10/05 05:22:32;;;;;;;10.90;2.73;;;;;;;13.30;100.00;102181.34;5220328;28;20125;-81
2023/10/05 05:25:06;;;;;;;8.13;2.83;;;;;;;13.25;100.00;102177.22;5227060;28;20116;-81
2023/10/05 05:27:37;;;;;;;13.07;3.20;;;;;;;13.45;100.00;102209.59;5244425;28;20029;-81
2023/10/05 05:30:23;;;;;;;12.27;3.63;;;;;;;13.29;100.00;102184.91;5234146;28;20095;-79
2023/10/05 05:32:56;;;;;;;11.40;3.80;;;;;;;13.47;100.00;102213.84;5242374;28;20870;-81
2023/10/05 05:35:28;;;;;;;10.53;3.20;;;;;;;13.28;100.00;102192.88;5238586;28;20633;-81
2023/10/05 05:37:59;;;;;;;15.27;4.03;;;;;;;13.10;100.00;102163.06;5246785;28;20021;-81
2023/10/05 05:40:34;;;;;;;10.47;3.07;;;;;;;13.16;100.00;102168.88;5239246;28;20122;-82
2023/10/05 05:43:11;;;;;;;8.47;3.03;;;;;;;13.19;100.00;102173.13;5234001;28;20030;-81
2023/10/05 05:45:45;;;;;;;13.57;3.63;;;;;;;13.48;100.00;102219.94;5233902;28;20032;-82
2023/10/05 05:48:16;;;;;;;10.35;3.55;;;;;;;13.37;100.00;102202.09;5232587;28;20177;-83
2023/10/05 05:50:48;;;;;;;8.73;2.93;;;;;;;13.31;100.00;102190.09;5247319;28;20017;-82
2023/10/05 05:53:19;;;;;;;7.00;3.20;;;;;;;13.43;100.00;102212.31;5244298;28;20033;-82
2023/10/05 05:55:54;;;;;;;12.33;3.53;;;;;;;13.35;100.00;102196.03;5234164;28;20063;-81
2023/10/05 05:58:26;;;;;;;11.50;3.77;;;;;;;13.46;100.00;102221.84;5228482;28;20025;-79
2023/10/05 06:00:57;;;;;;;12.07;3.40;;;;;;;13.41;100.00;102214.16;5222274;28;20453;-79
2023/10/05 06:03:29;;;;;;;12.60;3.43;;;;;;;13.39;100.00;102203.69;5225855;28;20030;-80
2023/10/05 06:06:03;;;;;;;12.20;4.53;;;;;;;13.38;100.00;102203.78;5226413;28;20048;-80
2023/10/05 06:08:35;;;;;;;;;;;;;;;13.97;100.00;102231.56;5229136;28;20033;-79
2023/10/05 06:11:08;;;;;;;8.73;3.10;;;;;;;13.44;100.00;102198.19;5227991;28;19931;-80
2023/10/05 06:13:41;;;;;;;12.37;3.53;;;;;;;13.52;100.00;102222.41;5224713;28;20045;-79
2023/10/05 06:16:14;;;;;;;10.43;3.50;;;;;;;13.54;100.00;102230.22;5221006;28;20022;-80
2023/10/05 06:18:45;;;;;;;13.70;3.57;;;;;;;13.46;100.00;102225.28;5229295;28;20034;-80
2023/10/05 06:21:17;;;;;;;12.60;3.40;;;;;;;13.45;100.00;102207.81;5240180;28;20017;-80
2023/10/05 06:23:50;;;;;;;10.63;3.40;;;;;;;13.59;100.00;102222.09;5216860;28;20034;-80
2023/10/05 06:26:23;;;;;;;14.43;3.70;;;;;;;13.75;100.00;102256.38;5233748;28;20067;-80
2023/10/05 06:28:55;;;;;;;14.60;3.33;;;;;;;13.61;100.00;102228.13;5231634;28;20034;-81
2023/10/05 06:31:27;;;;;;;11.10;3.70;;;;;;;13.66;100.00;102244.53;5244342;28;20860;-81
2023/10/05 06:33:58;;;;;;;11.63;4.00;;;;;;;13.73;100.00;102256.47;5231783;28;20021;-81
2023/10/05 06:36:30;;;;;;;11.10;3.73;;;;;;;13.78;100.00;102259.72;5229242;28;20044;-81
2023/10/05 06:39:01;;;;;;;10.87;3.43;;;;;;;13.66;100.00;102245.41;5241184;28;20029;-78
2023/10/05 06:41:34;;;;;;;12.23;3.63;;;;;;;13.62;100.00;102237.72;5235475;28;20649;-79
2023/10/05 06:44:07;;;;;;;10.20;2.90;;;;;;;13.73;100.00;102251.19;5234954;28;20033;-81
2023/10/05 06:46:42;;;;;;;9.23;3.07;;;;;;;13.69;100.00;102233.84;5239007;28;20036;-79
2023/10/05 06:49:13;;;;;;;;;;;;;;;14.30;100.00;102277.28;5225187;28;20676;-81
2023/10/05 06:51:45;;;;;;;9.20;3.20;;;;;;;13.78;100.00;102254.44;5224164;28;19913;-79
2023/10/05 06:54:17;;;;;;;14.10;4.50;;;;;;;13.85;100.00;102272.56;5236569;28;20017;-80
2023/10/05 06:56:49;;;;;;;11.80;3.57;;;;;;;13.86;100.00;102277.75;5231350;28;20195;-80
2023/10/05 06:59:21;;;;;;;12.10;3.47;;;;;;;13.92;100.00;102287.13;5246189;28;20104;-81
2023/10/05 07:01:52;;;;;;;13.37;3.70;;;;;;;13.87;100.00;102278.59;5237710;28;20111;-80
2023/10/05 07:04:25;;;;;;;9.17;3.00;;;;;;;13.91;100.00;102280.16;5244353;28;20030;-80
2023/10/05 07:06:56;;;;;;;8.57;2.93;;;;;;;13.91;100.00;102281.00;5230302;28;20034;-81
2023/10/05 07:09:28;;;;;;;13.50;4.33;;;;;;;13.93;100.00;102278.28;5228101;28;20083;-81
2023/10/05 07:12:03;;;;;;;10.23;2.97;;;;;;;13.93;100.00;102280.91;5239904;28;20419;-81
2023/10/05 07:14:34;;;;;;;11.63;4.10;;;;;;;14.05;100.00;102302.31;5240074;28;20734;-81
2023/10/05 07:17:06;;;;;;;20.60;4.23;;;;;;;14.00;100.00;102290.22;5241766;28;20022;-82
2023/10/05 07:19:38;;;;;;;10.50;3.50;;;;;;;14.15;100.00;102314.91;5233888;28;20565;-80
2023/10/05 07:22:09;;;;;;;9.10;3.87;;;;;;;14.12;100.00;102299.25;5229154;28;20057;-81
2023/10/05 07:24:41;;;;;;;10.77;3.60;;;;;;;14.24;100.00;102312.75;5233676;28;20030;-80
2023/10/05 07:27:13;;;;;;;9.67;3.70;;;;;;;14.15;100.00;102291.19;5235112;28;20378;-81
2023/10/05 07:29:45;;;;;;;9.13;3.60;;;;;;;14.35;100.00;102301.63;5232533;28;20028;-80
2023/10/05 07:32:17;;;;;;;9.60;4.00;;;;;;;14.48;100.00;102333.47;5233060;28;20049;-80
2023/10/05 07:34:48;;;;;;;12.30;3.30;;;;;;;14.56;100.00;102333.91;5232234;28;20519;-79
2023/10/05 07:37:19;;;;;;;9.60;4.87;;;;;;;14.49;100.00;102325.47;5241879;28;20025;-80
2023/10/05 07:39:51;;;;;;;12.47;4.00;;;;;;;14.55;100.00;102320.81;5231800;28;20037;-79
2023/10/05 07:42:22;;;;;;;12.67;4.37;;;;;;;14.63;100.00;102334.44;5231090;28;20021;-79
2023/10/05 07:44:53;;;;;;;11.40;3.90;;;;;;;14.78;100.00;102347.72;5231692;28;20029;-78
2023/10/05 07:47:25;;;;;;;9.40;4.50;;;;;;;14.84;100.00;102336.88;5246439;28;20021;-79
2023/10/05 07:49:56;;;;;;;13.87;4.20;;;;;;;14.91;100.00;102343.53;5231640;28;20037;-79
2023/10/05 07:52:27;;;;;;;10.37;3.47;;;;;;;14.95;100.00;102355.63;5227992;28;20393;-79
2023/10/05 07:54:59;;;;;;;9.13;4.03;;;;;;;15.05;100.00;102349.81;5230135;28;20033;-81
2023/10/05 07:57:30;;;;;;;11.93;3.77;;;;;;;15.11;100.00;102349.50;5234532;28;20512;-80
2023/10/05 08:00:04;;;;;;;12.13;3.70;;;;;;;15.23;100.00;102343.53;5231898;28;20075;-80
2023/10/05 08:02:35;;;;;;;7.15;3.60;;;;;;;15.42;100.00;102347.78;5234173;28;20374;-78
2023/10/05 08:05:17;;;;;;;12.80;4.03;;;;;;;15.63;100.00;102344.84;5240096;28;20048;-80
2023/10/05 08:07:48;;;;;;;9.23;2.83;;;;;;;15.83;100.00;102329.66;5231633;28;20036;-79
2023/10/05 08:10:20;;;;;;;7.73;3.03;;;;;;;16.08;100.00;102357.28;5232002;28;20444;-80
2023/10/05 08:12:53;;;;;;;11.17;3.50;;;;;;;16.19;100.00;102362.78;5224199;28;20485;-79
2023/10/05 08:15:24;;;;;;;12.67;3.43;;;;;;;16.36;100.00;102347.69;5233551;28;20029;-79
2023/10/05 08:17:56;;;;;;;8.70;3.23;;;;;;;16.63;100.00;102344.31;5240955;28;20029;-81
2023/10/05 08:20:28;;;;;;;10.27;4.03;;;;;;;16.88;100.00;102368.34;5236110;28;20124;-79
2023/10/05 08:22:59;;;;;;;9.90;3.20;;;;;;;17.02;100.00;102362.19;5230288;28;20117;-79
2023/10/05 08:25:30;;;;;;;10.17;3.73;;;;;;;17.23;100.00;102367.09;5232846;28;20025;-80
2023/10/05 08:28:03;;;;;;;9.87;3.90;;;;;;;17.29;100.00;102356.97;5236821;28;20409;-80
2023/10/05 08:30:45;;;;;;;10.37;3.93;;;;;;;17.25;100.00;102368.72;5241776;28;20021;-83
2023/10/05 08:33:19;;;;;;;11.97;3.87;;;;;;;17.09;100.00;102349.44;5233811;28;20048;-80
2023/10/05 08:35:50;;;;;;;15.82;3.85;;;;;;;16.99;100.00;102341.22;5243809;28;20013;-80
2023/10/05 08:38:24;;;;;;;8.87;3.47;;;;;;;17.00;100.00;102362.28;5242460;28;20029;-82
2023/10/05 08:40:56;;;;;;;8.15;3.55;;;;;;;16.81;100.00;102341.44;5228914;28;20072;-81
2023/10/05 08:43:28;;;;;;;8.43;3.10;;;;;;;16.68;100.00;102352.81;5236510;28;20067;-81
2023/10/05 08:46:05;;;;;;;8.77;3.47;;;;;;;16.77;100.00;102369.03;5238075;28;20769;-81
2023/10/05 08:48:37;;;;;;;8.33;2.87;;;;;;;16.56;100.00;102333.22;5254270;28;20028;-82
2023/10/05 08:51:12;;;;;;;8.00;3.13;;;;;;;16.95;100.00;102395.31;5247979;28;20056;-84
2023/10/05 08:53:59;;;;;;;6.57;2.97;;;;;;;16.62;100.00;102350.53;5230915;28;20037;-83
2023/10/05 08:56:31;;;;;;;8.50;3.37;;;;;;;16.79;100.00;102393.63;5231956;28;20041;-83
2023/10/05 08:59:07;;;;;;;7.80;2.83;;;;;;;16.72;100.00;102368.47;5242797;28;20432;-83
2023/10/05 09:01:39;;;;;;;9.57;2.90;;;;;;;16.87;100.00;102401.91;5238658;28;20022;-83
2023/10/05 09:04:23;;;;;;;9.20;2.97;;;;;;;16.49;100.00;102337.22;5244411;28;20039;-84
2023/10/05 09:07:08;;;;;;;9.88;3.63;;;;;;;16.73;100.00;102346.38;5231629;28;20127;-84
2023/10/05 09:09:54;;;;;;;9.57;2.80;;;;;;;16.72;100.00;102371.97;5228131;28;20593;-85
2023/10/05 09:12:33;;;;;;;13.27;3.77;;;;;;;16.73;100.00;102372.81;5236528;28;20092;-84
2023/10/05 09:20:35;;;;;;;;;;;;;;;17.53;100.00;102434.94;5242121;28;20048;-83
2023/10/05 09:23:09;;;;;;;10.35;3.20;;;;;;;16.86;100.00;102376.38;5223554;28;20609;-83
2023/10/05 09:25:47;;;;;;;13.93;3.50;;;;;;;16.98;100.00;102416.28;5225278;28;20480;-83
2023/10/05 09:29:12;;;;;;;12.57;3.07;;;;;;;17.05;100.00;102414.97;5221701;28;20059;-83
2023/10/05 09:31:36;;;;;;;10.03;3.47;;;;;;;17.01;100.00;102397.56;5228735;28;20025;-83
2023/10/05 09:34:14;;;;;;;12.47;2.90;;;;;;;16.95;100.00;102400.59;5212691;28;20081;-83
2023/10/05 09:36:45;;;;;;;16.13;3.17;;;;;;;16.92;100.00;102397.19;5221825;28;20025;-83
2023/10/05 09:39:18;;;;;;;9.60;3.13;;;;;;;16.85;100.00;102387.94;5227785;28;20416;-83
2023/10/05 09:41:52;;;;;;;7.83;2.57;;;;;;;17.01;100.00;102410.78;5229150;28;20021;-83
2023/10/05 09:44:28;;;;;;;12.07;3.55;;;;;;;17.01;100.00;102400.19;5241109;28;20022;-83
2023/10/05 09:47:01;;;;;;;11.27;2.70;;;;;;;17.10;100.00;102404.09;5222813;28;20057;-83
2023/10/05 09:49:34;;;;;;;11.57;3.13;;;;;;;16.89;100.00;102375.38;5236147;28;20029;-83
2023/10/05 09:52:08;;;;;;;12.60;4.07;;;;;;;17.24;100.00;102433.22;5221088;28;20021;-83
2023/10/05 09:54:42;;;;;;;8.82;2.95;;;;;;;16.96;100.00;102391.69;5222988;28;20052;-82
2023/10/05 09:57:20;;;;;;;13.70;3.03;;;;;;;17.22;100.00;102421.00;5228557;28;20026;-83
2023/10/05 09:59:59;;;;;;;8.73;3.50;;;;;;;17.00;100.00;102385.28;5232089;28;20025;-83
2023/10/05 10:02:34;;;;;;;8.63;2.83;;;;;;;17.07;100.00;102409.56;5235563;28;20052;-83
2023/10/05 10:05:26;;;;;;;9.53;3.10;;;;;;;17.01;100.00;102379.03;5238359;28;20403;-83
2023/10/05 10:08:08;;;;;;;9.23;2.63;;;;;;;17.23;100.00;102409.44;5233275;28;20029;-84
2023/10/05 10:10:51;;;;;;;11.30;3.00;;;;;;;17.47;100.00;102432.69;5240373;28;20028;-82
2023/10/05 10:13:23;;;;;;;10.20;2.47;;;;;;;17.31;100.00;102407.19;5222041;28;20025;-84
2023/10/05 10:15:58;;;;;;;9.83;3.00;;;;;;;17.11;100.00;102380.19;5232183;28;20534;-83
2023/10/05 10:18:37;;;;;;;13.70;3.10;;;;;;;17.15;100.00;102396.72;5230352;28;20033;-84
2023/10/05 10:21:27;;;;;;;10.37;3.67;;;;;;;17.38;100.00;102397.06;5226536;28;20028;-83
2023/10/05 10:24:19;;;;;;;7.97;2.60;;;;;;;17.46;100.00;102404.50;5229244;28;20044;-84
2023/10/05 10:27:07;;;;;;;8.70;2.73;;;;;;;17.38;100.00;102382.03;5224059;28;20495;-83
2023/10/05 10:29:55;;;;;;;10.57;3.03;;;;;;;17.55;100.00;102388.00;5222544;28;20099;-84
2023/10/05 10:32:32;;;;;;;8.93;3.07;;;;;;;17.51;100.00;102397.09;5230020;28;20423;-83
2023/10/05 10:35:10;;;;;;;11.40;3.00;;;;;;;17.49;100.00;102404.31;5217901;28;20185;-84
2023/10/05 10:37:54;;;;;;;13.13;3.57;;;;;;;17.43;100.00;102373.78;5219610;28;20469;-84
2023/10/05 10:40:28;;;;;;;;;;;;;;;18.28;100.00;102430.09;5229020;28;20117;-84
2023/10/05 10:45:50;;;;;;;12.13;3.03;;;;;;;18.04;100.00;102446.66;5237450;28;20052;-81
2023/10/05 10:48:22;;;;;;;9.93;3.90;;;;;;;17.98;100.00;102417.91;5232302;28;20033;-82
2023/10/05 10:50:54;;;;;;;9.97;3.37;;;;;;;18.09;100.00;102426.00;5243256;28;20214;-79
2023/10/05 10:53:30;;;;;;;11.57;3.00;;;;;;;18.31;100.00;102421.91;5240198;28;20112;-84
2023/10/05 10:56:04;;;;;;;8.37;3.17;;;;;;;18.44;100.00;102415.78;5230220;28;20030;-83
2023/10/05 10:58:36;;;;;;;13.77;3.90;;;;;;;18.54;100.00;102411.53;5243476;28;20476;-83
2023/10/05 11:01:13;;;;;;;8.67;2.97;;;;;;;18.64;100.00;102422.34;5237046;28;20017;-82
2023/10/05 11:04:00;;;;;;;10.93;3.53;;;;;;;18.92;100.00;102431.03;5231526;28;20033;-83
2023/10/05 11:06:37;;;;;;;10.43;2.77;;;;;;;18.78;100.00;102401.97;5218091;28;20045;-83
2023/10/05 11:09:10;;;;;;;8.80;2.70;;;;;;;18.98;100.00;102419.13;5231340;28;20029;-83
2023/10/05 11:11:44;;;;;;;11.80;3.17;;;;;;;18.89;100.00;102402.06;5247069;28;20475;-83
2023/10/05 11:14:21;;;;;;;11.20;2.60;;;;;;;19.03;100.00;102411.69;5247590;28;20593;-83
2023/10/05 11:16:59;;;;;;;10.67;2.87;;;;;;;19.04;100.00;102397.44;5244171;28;20018;-83
2023/10/05 11:19:38;;;;;;;18.73;4.10;;;;;;;19.30;100.00;102424.00;5230539;28;20043;-84
2023/10/05 11:22:12;;;;;;;10.27;3.43;;;;;;;19.20;100.00;102412.34;5230774;28;20028;-82
2023/10/05 11:25:14;;;;;;;11.47;3.10;;;;;;;19.56;100.00;102417.72;5235023;28;20104;-82
2023/10/05 11:27:57;;;;;;;9.90;2.40;;;;;;;19.47;100.00;102419.25;5247583;28;20025;-83
2023/10/05 11:30:41;;;;;;;8.97;3.27;;;;;;;19.63;100.00;102413.66;5235920;28;20018;-83
2023/10/05 11:33:15;;;;;;;8.85;3.45;;;;;;;19.44;100.00;102403.53;5230740;28;20021;-83
2023/10/05 11:35:48;;;;;;;10.97;2.87;;;;;;;19.54;100.00;102409.88;5235010;28;20116;-83
2023/10/05 11:38:26;;;;;;;9.17;3.00;;;;;;;19.48;100.00;102412.13;5233680;28;20452;-80
2023/10/05 11:40:57;;;;;;;12.03;3.70;;;;;;;19.34;100.00;102398.88;5233055;28;20013;-81
2023/10/05 11:43:29;;;;;;;9.93;3.33;;;;;;;19.36;100.00;102420.03;5229745;28;20508;-80
2023/10/05 11:46:17;;;;;;;7.83;2.80;;;;;;;19.39;100.00;102414.47;5228976;28;20060;-80
2023/10/05 11:48:55;;;;;;;7.23;2.60;;;;;;;19.26;100.00;102414.53;5230267;28;20026;-79
2023/10/05 11:51:41;;;;;;;13.97;4.40;;;;;;;19.21;100.00;102403.41;5210596;28;20583;-80
2023/10/05 11:54:15;;;;;;;8.23;3.20;;;;;;;19.33;100.00;102405.16;5217304;28;20465;-80
2023/10/05 11:56:46;;;;;;;9.43;3.30;;;;;;;19.49;100.00;102425.31;5239352;28;20217;-80
2023/10/05 11:59:28;;;;;;;7.33;3.27;;;;;;;19.65;100.00;102421.50;5226131;28;20268;-80
2023/10/05 12:01:59;;;;;;;7.20;2.57;;;;;;;19.56;100.00;102418.59;5227392;28;20583;-81
2023/10/05 12:04:31;;;;;;;10.93;2.83;;;;;;;19.65;100.00;102410.88;5223957;28;20029;-80
2023/10/05 12:07:02;;;;;;;8.00;2.90;;;;;;;19.56;100.00;102376.06;5219370;28;20038;-80
2023/10/05 12:09:36;;;;;;;11.80;3.30;;;;;;;19.74;100.00;102412.00;5227596;28;20116;-80
2023/10/05 12:12:10;;;;;;;8.93;2.92;;;;;;;19.82;100.00;102418.47;5216984;28;20010;-79
2023/10/05 12:14:42;;;;;;;;;;;;;;;20.33;100.00;102425.38;5218632;28;20025;-80
2023/10/05 12:17:13;;;;;;;9.60;2.87;;;;;;;19.80;99.47;102400.91;5228143;28;19909;-80